Time;durP1;ratioP1;P1;durP2;ratioP2;P2;SDS_P1;SDS_P2;PMS_P1;PMS_P2;Temp;Humidity;BMP_temperature;BMP_pressure;BME280_temperature;BME280_humidity;BME280_pressure;Samples;Min_cycle;Max_cycle;Signal;HPM_P1;HPM_P2
2021/11/15 00:01:22;;;;;;;9.70;5.05;;;;;;;7.66;81.73;98605.13;5030530;28;20057;-59
2021/11/15 00:03:48;;;;;;;10.10;5.20;;;;;;;7.71;81.27;98613.69;5031448;28;21013;-57
2021/11/15 00:06:22;;;;;;;9.60;5.25;;;;;;;7.57;81.11;98610.50;5030058;28;20196;-59
2021/11/15 00:08:47;;;;;;;8.80;4.88;;;;;;;7.71;80.86;98605.91;5031490;28;20657;-59
2021/11/15 00:11:13;;;;;;;9.65;5.20;;;;;;;7.67;79.92;98599.06;5030559;28;20047;-57
2021/11/15 00:13:38;;;;;;;9.68;5.30;;;;;;;7.46;80.97;98616.78;5031432;28;20048;-58
2021/11/15 00:16:07;;;;;;;9.48;5.13;;;;;;;7.46;81.09;98610.72;5028559;28;20050;-58
2021/11/15 00:18:35;;;;;;;8.18;4.85;;;;;;;7.49;81.56;98608.91;5016224;28;20561;-56
2021/11/15 00:21:03;;;;;;;10.07;5.30;;;;;;;7.40;80.99;98606.50;5017224;28;20067;-56
2021/11/15 00:23:29;;;;;;;10.02;5.43;;;;;;;7.31;81.49;98617.03;5020242;28;20032;-56
2021/11/15 00:25:54;;;;;;;11.25;5.40;;;;;;;7.41;81.06;98625.53;5025781;28;20045;-56
2021/11/15 00:28:19;;;;;;;9.98;5.13;;;;;;;7.24;81.43;98608.53;5038027;28;20025;-58
2021/11/15 00:30:45;;;;;;;7.80;5.38;;;;;;;7.29;81.17;98611.03;5036070;28;20124;-57
2021/11/15 00:33:10;;;;;;;9.90;6.18;;;;;;;7.13;81.89;98616.50;5038248;28;20028;-55
2021/11/15 00:35:36;;;;;;;9.35;5.40;;;;;;;7.33;81.12;98604.88;5036354;28;20029;-58
2021/11/15 00:38:01;;;;;;;8.60;4.93;;;;;;;7.39;80.76;98611.69;5037763;28;20057;-58
2021/11/15 00:40:28;;;;;;;9.40;5.28;;;;;;;7.28;81.49;98598.94;5036659;28;20102;-56
2021/11/15 00:43:02;;;;;;;9.23;5.28;;;;;;;7.17;81.64;98621.59;5037500;28;20486;-56
2021/11/15 00:45:28;;;;;;;9.75;5.68;;;;;;;7.19;81.92;98620.72;5037158;28;20760;-56
2021/11/15 00:47:53;;;;;;;11.45;5.68;;;;;;;7.20;81.52;98621.56;5037953;28;20021;-57
2021/11/15 00:50:21;;;;;;;9.68;5.45;;;;;;;7.28;81.69;98615.38;5036352;28;20029;-56
2021/11/15 00:52:49;;;;;;;11.00;6.00;;;;;;;7.31;81.23;98611.84;5038011;28;20032;-58
2021/11/15 00:55:15;;;;;;;10.23;5.45;;;;;;;7.32;82.06;98616.16;5037858;28;20044;-56
2021/11/15 00:57:42;;;;;;;11.68;5.95;;;;;;;7.24;82.12;98615.44;5038786;28;20033;-57
2021/11/15 01:00:14;;;;;;;11.52;6.50;;;;;;;7.07;82.75;98621.78;5037112;28;20024;-57
2021/11/15 01:02:39;;;;;;;12.68;6.93;;;;;;;7.01;83.33;98624.47;5036376;28;20682;-56
2021/11/15 01:05:11;;;;;;;10.02;6.13;;;;;;;7.27;82.15;98613.63;5037555;28;20762;-56
2021/11/15 01:07:37;;;;;;;12.43;6.55;;;;;;;7.22;82.48;98624.97;5037930;28;20049;-56
2021/11/15 01:10:04;;;;;;;11.98;6.93;;;;;;;7.32;82.25;98617.00;5036886;28;20396;-56
2021/11/15 01:12:30;;;;;;;12.02;7.10;;;;;;;7.25;81.79;98612.81;5037225;28;20026;-56
2021/11/15 01:14:55;;;;;;;12.45;6.28;;;;;;;7.46;81.67;98614.19;5038531;28;20075;-56
2021/11/15 01:17:21;;;;;;;11.52;6.22;;;;;;;7.61;81.02;98614.75;5037920;28;20051;-55
2021/11/15 01:19:46;;;;;;;11.93;6.65;;;;;;;7.49;81.58;98613.25;5037880;28;20437;-57
2021/11/15 01:22:11;;;;;;;12.90;6.90;;;;;;;7.47;81.65;98626.25;5037496;28;20025;-57
2021/11/15 01:24:37;;;;;;;13.88;6.72;;;;;;;7.42;82.08;98617.69;5038365;28;20029;-56
2021/11/15 01:27:03;;;;;;;13.65;7.32;;;;;;;7.32;82.61;98618.75;5038014;28;20094;-56
2021/11/15 01:29:28;;;;;;;16.05;6.82;;;;;;;7.62;82.76;98619.06;5037920;28;20141;-57
2021/11/15 01:31:57;;;;;;;12.80;7.07;;;;;;;7.41;81.75;98626.38;5020842;28;20041;-56
2021/11/15 01:34:26;;;;;;;11.10;6.75;;;;;;;7.53;84.25;98620.97;5019550;28;20731;-55
2021/11/15 01:36:52;;;;;;;13.73;7.60;;;;;;;7.76;81.46;98619.66;5031941;28;20068;-56
2021/11/15 01:39:17;;;;;;;12.10;6.97;;;;;;;7.33;83.06;98623.06;5038150;28;20678;-57
2021/11/15 01:41:46;;;;;;;15.38;7.40;;;;;;;7.32;82.94;98626.56;5036704;28;20068;-57
2021/11/15 01:44:11;;;;;;;17.63;8.85;;;;;;;7.19;84.10;98615.53;5038377;28;20037;-56
2021/11/15 01:46:36;;;;;;;14.57;8.02;;;;;;;7.09;85.38;98609.63;5037539;28;20045;-58
2021/11/15 01:49:02;;;;;;;14.70;7.70;;;;;;;7.01;85.22;98621.88;5038076;28;20028;-58
2021/11/15 01:51:28;;;;;;;14.95;8.35;;;;;;;7.25;84.57;98611.97;5036360;28;20037;-56
2021/11/15 01:53:56;;;;;;;15.23;8.27;;;;;;;7.00;85.20;98614.97;5038465;28;20040;-56
2021/11/15 01:56:21;;;;;;;15.77;8.73;;;;;;;7.07;85.87;98621.78;5037309;28;20037;-57
2021/11/15 01:58:47;;;;;;;14.90;8.48;;;;;;;7.21;85.28;98612.91;5037245;28;20036;-56
2021/11/15 02:01:12;;;;;;;15.10;7.88;;;;;;;7.23;85.57;98613.75;5036018;28;20749;-56
2021/11/15 02:03:37;;;;;;;15.45;8.27;;;;;;;7.26;84.83;98617.13;5037348;28;20025;-58
2021/11/15 02:06:04;;;;;;;15.45;8.48;;;;;;;7.18;85.28;98615.56;5037285;28;20045;-56
2021/11/15 02:08:32;;;;;;;15.52;8.73;;;;;;;7.32;84.59;98616.16;5037901;28;20030;-56
2021/11/15 02:10:58;;;;;;;15.55;8.88;;;;;;;7.59;83.79;98614.81;5037865;28;20066;-56
2021/11/15 02:13:24;;;;;;;17.33;9.13;;;;;;;7.35;84.09;98616.09;5042092;28;20111;-57
2021/11/15 02:16:09;;;;;;;17.20;9.00;;;;;;;7.51;83.85;98617.53;5041181;28;20967;-57
2021/11/15 02:18:34;;;;;;;18.90;9.88;;;;;;;7.40;84.16;98609.09;5041034;28;20254;-57
2021/11/15 02:21:03;;;;;;;16.45;8.10;;;;;;;7.53;85.08;98607.13;5037961;28;20047;-56
2021/11/15 02:23:31;;;;;;;16.00;9.38;;;;;;;7.42;83.84;98604.72;5041398;28;20020;-56
2021/11/15 02:25:58;;;;;;;13.85;7.47;;;;;;;7.74;83.70;98600.66;5040251;28;20040;-55
2021/11/15 02:28:27;;;;;;;22.08;10.07;;;;;;;7.45;84.17;98607.25;5041507;28;20662;-57
2021/11/15 02:30:53;;;;;;;17.48;9.38;;;;;;;7.59;84.75;98598.34;5039528;28;20135;-55
2021/11/15 02:33:19;;;;;;;19.85;10.23;;;;;;;7.41;84.12;98584.84;5041105;28;20124;-57
2021/11/15 02:35:44;;;;;;;19.77;9.30;;;;;;;7.58;83.58;98589.72;5041158;28;20037;-56
2021/11/15 02:38:09;;;;;;;19.23;9.70;;;;;;;7.56;83.80;98585.44;5041315;28;20048;-57
2021/11/15 02:40:35;;;;;;;19.27;9.77;;;;;;;7.55;84.69;98583.72;5039566;28;20467;-56
2021/11/15 02:43:01;;;;;;;20.23;10.13;;;;;;;7.27;85.17;98590.28;5041224;28;20029;-56
2021/11/15 02:45:27;;;;;;;22.02;10.65;;;;;;;7.19;86.37;98588.75;5032583;28;20068;-55
2021/11/15 02:47:54;;;;;;;19.40;10.20;;;;;;;7.21;86.46;98586.97;5040819;28;20877;-57
2021/11/15 02:50:22;;;;;;;20.77;9.65;;;;;;;7.29;86.24;98585.06;5039795;28;20024;-57
2021/11/15 02:52:53;;;;;;;20.10;10.63;;;;;;;7.28;85.79;98580.78;5040174;28;20674;-56
2021/11/15 02:55:19;;;;;;;20.98;10.48;;;;;;;7.22;86.52;98567.91;5040350;28;20518;-55
2021/11/15 02:57:44;;;;;;;20.13;11.15;;;;;;;7.33;85.16;98565.97;5040749;28;20882;-57
2021/11/15 03:00:42;;;;;;;21.58;10.75;;;;;;;7.29;85.51;98574.69;5039338;28;20693;-55
2021/11/15 03:03:08;;;;;;;20.35;10.05;;;;;;;7.53;85.10;98571.66;5035481;28;20055;-57
2021/11/15 03:05:41;;;;;;;20.25;10.38;;;;;;;7.43;85.59;98575.28;5040012;28;20120;-55
2021/11/15 03:08:07;;;;;;;;;;;;;;;7.27;86.33;98566.09;5040857;28;20060;-57
2021/11/15 03:10:34;;;;;;;21.20;10.55;;;;;;;7.38;86.00;98577.13;5038837;28;19993;-57
2021/11/15 03:13:01;;;;;;;20.70;9.93;;;;;;;7.33;86.54;98571.16;5038148;28;20028;-59
2021/11/15 03:15:37;;;;;;;21.55;10.13;;;;;;;7.53;85.57;98573.38;5039884;28;20580;-56
2021/11/15 03:18:22;;;;;;;21.42;11.02;;;;;;;7.36;87.01;98576.28;5040287;28;20114;-56
2021/11/15 03:20:52;;;;;;;21.67;10.32;;;;;;;7.56;85.79;98578.50;5038549;28;20445;-56
2021/11/15 03:23:21;;;;;;;24.20;11.20;;;;;;;7.78;84.69;98563.34;5038732;28;20873;-55
2021/11/15 03:25:48;;;;;;;25.13;11.98;;;;;;;7.34;86.12;98573.72;5039719;28;20041;-56
2021/11/15 03:28:17;;;;;;;26.00;12.57;;;;;;;7.47;86.77;98563.97;5039817;28;20039;-57
2021/11/15 03:30:43;;;;;;;24.50;11.90;;;;;;;7.71;85.25;98564.38;5038676;28;20640;-56
2021/11/15 03:33:10;;;;;;;19.90;9.07;;;;;;;7.61;86.12;98565.44;5039697;28;20499;-56
2021/11/15 03:35:35;;;;;;;25.85;11.95;;;;;;;7.65;85.07;98569.69;5039338;28;20399;-55
2021/11/15 03:38:02;;;;;;;23.75;10.88;;;;;;;7.69;87.14;98568.75;5040289;28;20028;-57
2021/11/15 03:40:28;;;;;;;21.85;10.88;;;;;;;8.11;84.49;98566.13;5037000;28;20036;-57
2021/11/15 03:42:56;;;;;;;24.55;12.25;;;;;;;7.88;83.78;98567.47;5039367;28;20347;-57
2021/11/15 03:45:28;;;;;;;24.15;11.48;;;;;;;7.80;85.85;98564.19;5038418;28;20087;-56
2021/11/15 03:47:54;;;;;;;26.90;12.70;;;;;;;7.66;85.36;98566.19;5040142;28;20021;-55
2021/11/15 03:50:20;;;;;;;28.85;12.82;;;;;;;7.78;84.70;98555.56;5039095;28;20596;-57
2021/11/15 03:52:47;;;;;;;29.42;13.95;;;;;;;7.49;85.27;98562.19;5038680;28;20120;-56
2021/11/15 03:55:15;;;;;;;29.00;13.32;;;;;;;7.89;83.78;98556.19;5039281;28;20036;-57
2021/11/15 03:57:41;;;;;;;29.25;13.85;;;;;;;7.61;84.65;98555.03;5039699;28;20025;-55
2021/11/15 04:00:10;;;;;;;26.27;13.02;;;;;;;7.77;85.24;98564.22;5039015;28;20040;-57
2021/11/15 04:02:36;;;;;;;31.45;14.13;;;;;;;7.71;85.11;98564.38;5038778;28;20597;-58
2021/11/15 04:05:04;;;;;;;39.15;15.40;;;;;;;7.50;84.32;98566.50;5039549;28;20032;-57
2021/11/15 04:07:38;;;;;;;34.08;15.85;;;;;;;7.39;85.62;98559.78;5038645;28;20048;-56
2021/11/15 04:10:18;;;;;;;32.05;14.55;;;;;;;7.56;85.60;98567.28;5038627;28;20577;-58
2021/11/15 04:12:45;;;;;;;32.58;15.18;;;;;;;7.73;83.57;98571.22;5038936;28;20021;-58
2021/11/15 04:15:12;;;;;;;35.05;15.90;;;;;;;7.63;84.22;98567.13;5038897;28;20133;-56
2021/11/15 04:17:40;;;;;;;30.00;14.85;;;;;;;7.59;84.94;98567.19;5038958;28;20566;-56
2021/11/15 04:20:08;;;;;;;32.67;14.90;;;;;;;7.69;84.03;98559.19;5038203;28;20040;-57
2021/11/15 04:22:35;;;;;;;36.00;15.43;;;;;;;7.69;84.36;98558.34;5038529;28;20025;-56
2021/11/15 04:25:05;;;;;;;33.67;15.23;;;;;;;7.64;84.29;98555.00;5039132;28;20049;-58
2021/11/15 04:27:30;;;;;;;39.28;16.13;;;;;;;7.70;84.32;98554.84;5038387;28;20045;-57
2021/11/15 04:29:55;;;;;;;36.30;14.85;;;;;;;7.50;85.25;98555.28;5038252;28;20035;-57
2021/11/15 04:32:21;;;;;;;33.13;14.77;;;;;;;7.77;83.70;98551.25;5037947;28;20562;-55
2021/11/15 04:34:46;;;;;;;34.25;16.63;;;;;;;7.38;84.44;98564.13;5037893;28;20032;-55
2021/11/15 04:37:11;;;;;;;34.58;14.88;;;;;;;7.52;85.51;98556.94;5038428;28;20036;-55
2021/11/15 04:39:37;;;;;;;33.42;15.32;;;;;;;7.41;85.49;98550.28;5039010;28;20024;-55
2021/11/15 04:42:02;;;;;;;30.50;13.75;;;;;;;7.20;85.85;98548.91;5037417;28;20677;-56
2021/11/15 04:44:28;;;;;;;35.63;15.30;;;;;;;7.61;84.56;98549.84;5039095;28;20021;-55
2021/11/15 04:46:53;;;;;;;34.47;14.98;;;;;;;7.83;83.10;98556.31;5038120;28;20045;-57
2021/11/15 04:49:19;;;;;;;25.80;11.82;;;;;;;7.75;84.92;98545.22;5039007;28;20102;-55
2021/11/15 04:51:44;;;;;;;37.75;16.30;;;;;;;7.63;84.55;98545.50;5036447;28;20053;-55
2021/11/15 04:54:09;;;;;;;36.70;15.45;;;;;;;7.47;83.81;98550.13;5038573;28;20792;-55
2021/11/15 04:56:38;;;;;;;37.08;16.35;;;;;;;7.30;85.57;98540.09;5038250;28;20071;-55
2021/11/15 04:59:06;;;;;;;36.13;15.85;;;;;;;7.65;84.46;98551.53;5038729;28;20119;-57
2021/11/15 05:01:31;;;;;;;32.03;15.43;;;;;;;7.53;83.64;98548.28;5036977;28;20638;-54
2021/11/15 05:03:56;;;;;;;33.22;15.10;;;;;;;7.32;84.81;98546.09;5038431;28;20883;-56
2021/11/15 05:06:22;;;;;;;30.95;14.60;;;;;;;7.84;84.81;98546.78;5038179;28;20051;-55
2021/11/15 05:08:48;;;;;;;34.83;15.80;;;;;;;7.75;83.92;98546.97;5038373;28;20025;-55
2021/11/15 05:11:13;;;;;;;35.33;16.13;;;;;;;7.87;84.02;98551.94;5036831;28;20032;-55
2021/11/15 05:13:39;;;;;;;31.38;14.77;;;;;;;7.80;83.66;98546.00;5038443;28;20039;-55
2021/11/15 05:16:04;;;;;;;32.15;14.68;;;;;;;7.48;84.89;98554.44;5038062;28;20037;-56
2021/11/15 05:18:30;;;;;;;34.28;15.80;;;;;;;7.41;84.76;98547.66;5038467;28;20017;-55
2021/11/15 05:20:55;;;;;;;35.40;15.32;;;;;;;7.31;85.04;98552.16;5036960;28;20051;-55
2021/11/15 05:23:20;;;;;;;34.60;15.38;;;;;;;7.53;84.54;98545.69;5038566;28;20020;-55
2021/11/15 05:25:49;;;;;;;35.88;15.50;;;;;;;7.58;84.50;98547.34;5037842;28;20037;-56
2021/11/15 05:28:14;;;;;;;34.47;15.10;;;;;;;7.28;84.96;98537.53;5038492;28;20079;-55
2021/11/15 05:30:40;;;;;;;30.70;14.95;;;;;;;7.11;84.51;98545.63;5034804;28;20127;-54
2021/11/15 05:33:05;;;;;;;31.05;15.02;;;;;;;6.73;87.28;98534.19;5037891;28;20052;-54
2021/11/15 05:35:31;;;;;;;30.20;13.93;;;;;;;7.05;86.58;98545.72;5036217;28;20029;-56
2021/11/15 05:38:02;;;;;;;30.75;13.70;;;;;;;7.01;85.77;98544.06;5038327;28;20043;-56
2021/11/15 05:40:28;;;;;;;25.75;11.13;;;;;;;7.09;86.70;98544.78;5036975;28;20037;-55
2021/11/15 05:42:55;;;;;;;25.17;12.25;;;;;;;7.26;85.85;98548.78;5038221;28;20028;-57
2021/11/15 05:45:22;;;;;;;24.50;10.55;;;;;;;7.08;86.60;98550.84;5039614;28;20054;-57
2021/11/15 05:47:48;;;;;;;29.45;12.70;;;;;;;7.05;86.15;98550.06;5041299;28;20071;-55
2021/11/15 05:50:14;;;;;;;26.45;12.45;;;;;;;7.24;85.55;98550.56;5041562;28;20123;-54
2021/11/15 05:52:42;;;;;;;27.05;12.80;;;;;;;7.27;85.40;98560.91;5041389;28;20036;-54
2021/11/15 05:55:13;;;;;;;27.45;12.27;;;;;;;7.19;84.97;98558.44;5041975;28;20708;-55
2021/11/15 05:57:38;;;;;;;28.42;12.85;;;;;;;7.05;85.55;98561.28;5041835;28;20032;-55
2021/11/15 06:00:13;;;;;;;27.38;12.88;;;;;;;6.96;85.94;98564.03;5041277;28;20031;-56
2021/11/15 06:02:39;;;;;;;26.25;11.75;;;;;;;7.20;86.01;98565.34;5028947;28;20029;-57
2021/11/15 06:05:06;;;;;;;28.00;11.50;;;;;;;7.42;84.00;98575.31;5043412;28;20071;-55
2021/11/15 06:07:34;;;;;;;28.38;12.55;;;;;;;7.20;85.06;98578.31;5043392;28;20041;-54
2021/11/15 06:10:00;;;;;;;27.67;13.02;;;;;;;7.35;84.48;98569.38;5043694;28;20104;-56
2021/11/15 06:12:29;;;;;;;29.25;14.05;;;;;;;6.97;84.89;98573.53;5042810;28;20087;-54
2021/11/15 06:14:54;;;;;;;25.02;11.25;;;;;;;7.00;85.69;98570.88;5043850;28;20095;-56
2021/11/15 06:17:20;;;;;;;26.98;11.45;;;;;;;7.16;85.29;98571.47;5043766;28;20179;-56
2021/11/15 06:19:45;;;;;;;24.60;10.98;;;;;;;7.04;85.89;98582.94;5043608;28;20029;-56
2021/11/15 06:22:10;;;;;;;28.65;13.50;;;;;;;6.72;86.89;98584.31;5042577;28;20029;-56
2021/11/15 06:24:38;;;;;;;30.90;12.20;;;;;;;6.73;87.78;98575.66;5043979;28;20020;-56
2021/11/15 06:27:04;;;;;;;26.65;12.35;;;;;;;7.01;86.25;98579.53;5043496;28;20043;-53
2021/11/15 06:29:32;;;;;;;28.25;11.57;;;;;;;7.01;85.36;98580.38;5041767;28;20025;-56
2021/11/15 06:32:01;;;;;;;27.58;10.88;;;;;;;6.99;85.68;98587.34;5042031;28;20037;-55
2021/11/15 06:34:27;;;;;;;25.50;12.35;;;;;;;6.83;86.48;98586.72;5042020;28;20481;-57
2021/11/15 06:36:52;;;;;;;26.67;12.35;;;;;;;6.74;87.05;98587.72;5041576;28;20487;-55
2021/11/15 06:39:17;;;;;;;26.80;11.00;;;;;;;6.89;86.61;98591.84;5042258;28;20064;-55
2021/11/15 06:41:43;;;;;;;25.58;11.40;;;;;;;7.02;85.75;98597.66;5041610;28;20137;-57
2021/11/15 06:44:08;;;;;;;22.75;10.70;;;;;;;7.14;86.35;98602.63;5043346;28;20116;-56
2021/11/15 06:46:34;;;;;;;23.25;10.32;;;;;;;7.38;85.13;98603.06;5042685;28;20049;-56
2021/11/15 06:48:59;;;;;;;26.92;11.35;;;;;;;7.26;84.42;98616.25;5043084;28;20082;-56
2021/11/15 06:51:36;;;;;;;25.23;11.38;;;;;;;7.19;85.44;98604.31;5041521;28;20041;-56
2021/11/15 06:54:02;;;;;;;21.77;10.90;;;;;;;7.12;85.09;98619.97;5042810;28;20115;-57
2021/11/15 06:56:28;;;;;;;20.98;9.75;;;;;;;7.19;85.26;98619.88;5041601;28;20049;-55
2021/11/15 06:58:53;;;;;;;23.70;10.57;;;;;;;7.05;85.97;98618.34;5042826;28;20086;-59
2021/11/15 07:01:19;;;;;;;28.65;10.80;;;;;;;7.24;84.79;98612.84;5040904;28;20040;-58
2021/11/15 07:03:44;;;;;;;21.67;9.98;;;;;;;7.07;85.31;98616.56;5042635;28;20025;-58
2021/11/15 07:06:10;;;;;;;26.02;11.50;;;;;;;6.78;85.87;98621.41;5042503;28;20114;-57
2021/11/15 07:08:35;;;;;;;25.20;12.25;;;;;;;6.84;86.48;98618.72;5042258;28;20029;-58
2021/11/15 07:11:01;;;;;;;26.02;10.57;;;;;;;6.77;86.64;98617.09;5041407;28;20045;-58
2021/11/15 07:13:44;;;;;;;22.30;9.65;;;;;;;7.22;85.25;98619.78;5043039;28;20033;-58
2021/11/15 07:16:10;;;;;;;26.42;10.38;;;;;;;6.98;86.21;98616.72;5042305;28;20759;-59
2021/11/15 07:18:38;;;;;;;22.80;10.07;;;;;;;7.02;85.98;98618.41;5042741;28;20027;-58
2021/11/15 07:21:04;;;;;;;22.30;9.88;;;;;;;7.17;84.83;98606.03;5036661;28;20048;-57
2021/11/15 07:23:35;;;;;;;24.33;11.32;;;;;;;6.87;86.50;98603.09;5022580;28;20037;-59
2021/11/15 07:26:06;;;;;;;22.02;9.43;;;;;;;7.30;84.73;98602.38;5022186;28;20053;-58
2021/11/15 07:28:37;;;;;;;22.50;10.52;;;;;;;7.25;84.84;98605.03;5020050;28;20022;-57
2021/11/15 07:31:03;;;;;;;17.60;8.18;;;;;;;6.90;85.81;98603.06;5018406;28;20140;-55
2021/11/15 07:33:31;;;;;;;24.63;11.75;;;;;;;6.98;86.28;98601.16;5017023;28;20041;-55
2021/11/15 07:35:57;;;;;;;21.83;10.02;;;;;;;6.70;87.38;98617.19;5023234;28;20044;-57
2021/11/15 07:38:26;;;;;;;22.35;10.93;;;;;;;6.98;86.14;98610.69;5042363;28;20021;-57
2021/11/15 07:40:57;;;;;;;22.77;10.43;;;;;;;7.13;86.54;98611.31;5039569;28;20045;-57
2021/11/15 07:43:22;;;;;;;20.13;9.57;;;;;;;7.19;85.65;98614.69;5041848;28;20032;-56
2021/11/15 07:45:48;;;;;;;23.50;9.80;;;;;;;7.45;86.77;98615.06;5041672;28;20076;-59
2021/11/15 07:48:13;;;;;;;24.30;12.10;;;;;;;7.13;85.14;98621.69;5042310;28;20682;-57
2021/11/15 07:50:39;;;;;;;19.88;8.75;;;;;;;7.41;87.79;98622.94;5039586;28;20122;-58
2021/11/15 07:53:05;;;;;;;19.08;9.20;;;;;;;7.35;86.22;98626.47;5041763;28;20487;-56
2021/11/15 07:55:34;;;;;;;21.88;9.80;;;;;;;7.61;83.98;98623.41;5041515;28;20036;-56
2021/11/15 07:58:02;;;;;;;18.25;8.60;;;;;;;7.71;85.33;98621.50;5041550;28;20021;-56
2021/11/15 08:00:28;;;;;;;21.73;9.25;;;;;;;7.74;85.09;98624.03;5038799;28;20035;-55
2021/11/15 08:02:59;;;;;;;23.00;9.43;;;;;;;7.48;86.54;98627.97;5040441;28;20120;-56
2021/11/15 08:05:24;;;;;;;24.08;10.05;;;;;;;7.82;85.92;98611.75;5041043;28;20108;-58
2021/11/15 08:07:50;;;;;;;21.88;9.45;;;;;;;7.53;84.22;98623.56;5041046;28;20170;-58
2021/11/15 08:10:19;;;;;;;22.38;9.60;;;;;;;7.66;84.53;98610.34;5040399;28;20168;-57
2021/11/15 08:12:53;;;;;;;21.33;9.75;;;;;;;7.64;83.96;98609.50;5030888;28;20663;-56
2021/11/15 08:15:19;;;;;;;21.88;10.07;;;;;;;7.83;87.08;98610.88;5041244;28;20025;-57
2021/11/15 08:17:49;;;;;;;19.73;9.35;;;;;;;7.88;88.28;98615.94;5040528;28;20033;-58
2021/11/15 08:20:20;;;;;;;19.88;9.30;;;;;;;7.73;87.48;98617.13;5040335;28;20051;-57
2021/11/15 08:22:48;;;;;;;23.85;11.05;;;;;;;8.11;83.87;98607.69;5040621;28;20045;-56
2021/11/15 08:26:17;;;;;;;21.70;9.32;;;;;;;7.66;84.20;98615.53;5040799;28;20052;-57
2021/11/15 08:28:43;;;;;;;23.35;8.98;;;;;;;7.68;89.57;98603.38;5018602;28;20052;-56
2021/11/15 08:31:09;;;;;;;20.98;9.90;;;;;;;8.28;90.38;98605.56;5019183;28;20155;-56
2021/11/15 08:33:35;;;;;;;20.33;9.00;;;;;;;8.33;90.11;98597.69;5015336;28;20040;-56
2021/11/15 08:36:00;;;;;;;21.98;9.85;;;;;;;8.38;82.07;98594.97;5028234;28;20049;-55
2021/11/15 08:38:44;;;;;;;20.73;9.18;;;;;;;8.39;82.74;98591.50;5041258;28;20021;-56
2021/11/15 08:41:12;;;;;;;21.88;9.98;;;;;;;8.27;84.93;98595.19;5039373;28;20083;-57
2021/11/15 08:43:37;;;;;;;17.63;8.38;;;;;;;8.13;83.91;98585.13;5041170;28;20491;-58
2021/11/15 08:46:04;;;;;;;20.98;9.57;;;;;;;8.25;82.33;98590.06;5040464;28;20064;-56
2021/11/15 08:48:33;;;;;;;23.83;9.77;;;;;;;8.28;82.26;98589.97;5041143;28;20029;-57
2021/11/15 08:50:59;;;;;;;21.08;9.27;;;;;;;8.78;89.15;98594.06;5038658;28;20040;-57
2021/11/15 08:53:27;;;;;;;21.45;9.40;;;;;;;8.88;85.23;98599.03;5041271;28;20016;-56
2021/11/15 08:55:55;;;;;;;23.15;10.23;;;;;;;8.97;84.95;98600.56;5040207;28;20079;-58
2021/11/15 08:58:23;;;;;;;19.65;9.07;;;;;;;8.26;80.10;98591.75;5040927;28;20024;-57
2021/11/15 09:01:00;;;;;;;19.42;8.90;;;;;;;8.61;82.79;98592.72;5036811;28;20037;-56
2021/11/15 09:03:47;;;;;;;16.58;8.82;;;;;;;8.91;83.78;98590.28;5041040;28;20025;-57
2021/11/15 09:06:14;;;;;;;19.45;9.23;;;;;;;9.29;84.19;98591.06;5039646;28;20041;-56
2021/11/15 09:08:41;;;;;;;19.20;8.32;;;;;;;9.71;88.41;98598.59;5040926;28;20032;-56
2021/11/15 09:11:07;;;;;;;18.73;8.57;;;;;;;9.30;82.09;98587.56;5039164;28;20059;-57
2021/11/15 09:13:35;;;;;;;17.48;9.02;;;;;;;9.05;78.45;98582.97;5040312;28;20450;-56
2021/11/15 09:16:09;;;;;;;17.80;9.02;;;;;;;9.71;77.71;98589.94;5039863;28;20091;-54
2021/11/15 09:18:36;;;;;;;19.30;8.32;;;;;;;8.74;76.92;98582.03;5040241;28;20106;-56
2021/11/15 09:21:10;;;;;;;23.60;10.02;;;;;;;9.24;76.38;98588.59;5036848;28;20119;-56
2021/11/15 09:23:39;;;;;;;15.73;8.50;;;;;;;9.05;76.23;98582.97;5039470;28;20021;-54
2021/11/15 09:26:05;;;;;;;17.30;8.38;;;;;;;9.63;79.32;98595.34;5039837;28;20036;-57
2021/11/15 09:28:30;;;;;;;17.17;8.77;;;;;;;8.90;77.57;98591.19;5040695;28;20459;-55
2021/11/15 09:31:01;;;;;;;18.27;8.93;;;;;;;8.93;77.20;98593.69;5038582;28;20045;-55
2021/11/15 09:33:38;;;;;;;16.30;7.88;;;;;;;8.80;80.08;98594.88;5040683;28;20127;-56
2021/11/15 09:36:06;;;;;;;18.83;8.80;;;;;;;9.64;75.17;98591.84;5040154;28;20036;-56
2021/11/15 09:38:32;;;;;;;16.10;7.95;;;;;;;9.53;81.68;98599.09;5039456;28;20383;-56
2021/11/15 09:41:02;;;;;;;15.75;7.68;;;;;;;9.63;80.93;98595.34;5039387;28;20550;-55
2021/11/15 09:43:36;;;;;;;19.60;9.15;;;;;;;9.23;76.81;98591.22;5040138;28;20025;-56
2021/11/15 09:46:08;;;;;;;17.55;8.60;;;;;;;9.96;77.26;98595.28;5039261;28;20041;-56
2021/11/15 09:48:43;;;;;;;15.63;7.80;;;;;;;9.88;78.19;98592.06;5040405;28;20057;-56
2021/11/15 09:51:09;;;;;;;16.80;8.15;;;;;;;9.53;77.86;98596.50;5038699;28;20049;-56
2021/11/15 09:53:37;;;;;;;16.55;7.97;;;;;;;9.96;78.15;98605.72;5039974;28;20047;-57
2021/11/15 09:56:06;;;;;;;16.98;8.40;;;;;;;9.12;74.80;98603.66;5039900;28;20499;-55
2021/11/15 09:58:38;;;;;;;16.20;8.20;;;;;;;9.69;74.86;98615.19;5040775;28;20029;-56
2021/11/15 10:01:07;;;;;;;15.35;7.82;;;;;;;9.90;74.45;98608.50;5036625;28;20120;-55
2021/11/15 10:03:38;;;;;;;16.10;7.85;;;;;;;9.86;73.01;98601.69;5022430;28;20017;-56
2021/11/15 10:06:08;;;;;;;16.20;8.27;;;;;;;9.98;78.88;98612.59;5040056;28;20110;-56
2021/11/15 10:08:59;;;;;;;17.83;9.18;;;;;;;9.00;75.23;98605.66;5041455;28;20110;-57
2021/11/15 10:11:48;;;;;;;15.52;8.15;;;;;;;9.27;75.48;98601.50;5040156;28;20048;-55
2021/11/15 10:14:15;;;;;;;17.90;8.75;;;;;;;9.71;74.67;98598.59;5041975;28;20758;-56
2021/11/15 10:17:06;;;;;;;15.07;7.93;;;;;;;9.59;75.00;98606.75;5041171;28;20451;-56
2021/11/15 10:19:32;;;;;;;18.42;7.55;;;;;;;9.69;75.67;98609.97;5041876;28;20086;-56
2021/11/15 10:22:07;;;;;;;18.02;8.52;;;;;;;8.75;76.55;98612.34;5040013;28;20033;-57
2021/11/15 10:24:50;;;;;;;17.25;8.23;;;;;;;8.76;76.88;98612.31;5041458;28;20032;-56
2021/11/15 10:27:17;;;;;;;18.95;9.20;;;;;;;9.38;75.03;98606.44;5040881;28;20069;-56
2021/11/15 10:29:50;;;;;;;17.45;9.10;;;;;;;8.72;76.35;98612.44;5040985;28;20498;-56
2021/11/15 10:32:19;;;;;;;16.88;8.57;;;;;;;9.04;77.00;98607.31;5041481;28;20071;-56
2021/11/15 10:34:53;;;;;;;18.73;9.30;;;;;;;9.16;76.63;98607.88;5044813;28;20032;-55
2021/11/15 10:37:36;;;;;;;16.92;8.52;;;;;;;8.95;76.86;98597.13;5044675;28;20041;-57
2021/11/15 10:40:13;;;;;;;15.57;7.70;;;;;;;9.68;78.71;98601.28;5042957;28;20032;-56
2021/11/15 10:42:46;;;;;;;20.08;9.20;;;;;;;9.15;75.89;98606.16;5044677;28;20040;-56
2021/11/15 10:45:22;;;;;;;19.80;8.75;;;;;;;9.57;78.20;98604.19;5044284;28;20059;-56
2021/11/15 10:48:20;;;;;;;20.35;9.40;;;;;;;9.03;76.02;98592.59;5043934;28;20020;-56
2021/11/15 10:53:22;;;;;;;20.15;8.98;;;;;;;9.73;74.71;98598.56;5045329;28;20037;-55
2021/11/15 10:56:26;;;;;;;19.65;9.88;;;;;;;9.57;74.97;98590.31;5043815;28;20060;-57
2021/11/15 10:58:51;;;;;;;18.55;9.20;;;;;;;9.57;80.10;98588.56;5036116;28;20037;-57
2021/11/15 11:01:18;;;;;;;19.02;9.43;;;;;;;9.41;77.61;98580.31;5041200;28;20048;-55
2021/11/15 11:03:44;;;;;;;20.38;9.85;;;;;;;9.65;75.53;98583.16;5044409;28;20040;-55
2021/11/15 11:06:13;;;;;;;19.70;9.82;;;;;;;9.15;75.46;98582.75;5043182;28;20051;-56
2021/11/15 11:08:47;;;;;;;18.83;8.80;;;;;;;9.79;78.24;98574.94;5043054;28;20036;-55
2021/11/15 11:11:17;;;;;;;19.95;9.63;;;;;;;9.64;74.25;98565.81;5041099;28;20048;-55
2021/11/15 11:13:57;;;;;;;17.92;9.40;;;;;;;10.06;75.68;98568.06;5042884;28;20021;-55
2021/11/15 11:17:02;;;;;;;17.25;8.88;;;;;;;10.07;75.54;98574.13;5041362;28;20454;-57
2021/11/15 11:19:46;;;;;;;;;;;;;;;;;;;;;
2021/11/15 11:25:18;;;;;;;15.77;8.73;;;;;;;9.85;75.85;98566.94;5042747;28;20071;-59
2021/11/15 11:27:45;;;;;;;17.20;8.48;;;;;;;10.52;77.77;98560.63;5042468;28;20859;-59
2021/11/15 11:30:15;;;;;;;20.20;10.23;;;;;;;9.65;73.81;98567.53;5041562;28;20356;-57
2021/11/15 11:32:40;;;;;;;18.90;9.98;;;;;;;9.64;74.09;98561.44;5042093;28;20028;-58
2021/11/15 11:35:14;;;;;;;18.83;8.82;;;;;;;10.32;76.52;98563.84;5042240;28;20017;-58
2021/11/15 11:37:47;;;;;;;19.35;9.40;;;;;;;9.87;74.07;98557.34;5041150;28;20099;-58
2021/11/15 11:40:13;;;;;;;20.00;10.38;;;;;;;9.64;75.29;98551.03;5041653;28;20025;-58
2021/11/15 11:42:39;;;;;;;17.08;8.73;;;;;;;10.12;77.61;98552.22;5041831;28;20032;-58
2021/11/15 11:45:07;;;;;;;20.00;9.68;;;;;;;9.72;74.95;98540.38;5042378;28;20028;-60